sensor_id;sensor_type;location;lat;lon;timestamp;P1;durP1;ratioP1;P2;durP2;ratioP2
44995;SDS011;30729;49.486;10.792;2023-10-09T00:01:25;8.65;;;4.78;;
44995;SDS011;30729;49.486;10.792;2023-10-09T00:03:50;13.75;;;4.95;;
44995;SDS011;30729;49.486;10.792;2023-10-09T00:06:18;11.73;;;4.70;;
44995;SDS011;30729;49.486;10.792;2023-10-09T00:08:49;9.40;;;4.57;;
44995;SDS011;30729;49.486;10.792;2023-10-09T00:11:19;12.13;;;5.45;;
44995;SDS011;30729;49.486;10.792;2023-10-09T00:13:45;9.23;;;4.97;;
44995;SDS011;30729;49.486;10.792;2023-10-09T00:16:23;10.35;;;4.90;;
44995;SDS011;30729;49.486;10.792;2023-10-09T00:19:01;9.13;;;4.90;;
44995;SDS011;30729;49.486;10.792;2023-10-09T00:21:42;11.82;;;4.82;;
44995;SDS011;30729;49.486;10.792;2023-10-09T00:24:08;11.60;;;4.80;;
44995;SDS011;30729;49.486;10.792;2023-10-09T00:26:43;8.40;;;4.68;;
44995;SDS011;30729;49.486;10.792;2023-10-09T00:29:10;8.80;;;4.22;;
44995;SDS011;30729;49.486;10.792;2023-10-09T00:31:47;10.15;;;4.85;;
44995;SDS011;30729;49.486;10.792;2023-10-09T00:34:18;11.80;;;5.00;;
44995;SDS011;30729;49.486;10.792;2023-10-09T00:36:47;11.68;;;5.22;;
44995;SDS011;30729;49.486;10.792;2023-10-09T00:39:15;10.90;;;5.28;;
44995;SDS011;30729;49.486;10.792;2023-10-09T00:41:47;12.55;;;5.43;;
44995;SDS011;30729;49.486;10.792;2023-10-09T00:44:12;11.30;;;5.93;;
44995;SDS011;30729;49.486;10.792;2023-10-09T00:46:37;13.77;;;5.80;;
44995;SDS011;30729;49.486;10.792;2023-10-09T00:49:07;15.77;;;7.18;;
44995;SDS011;30729;49.486;10.792;2023-10-09T00:51:35;14.45;;;7.10;;
44995;SDS011;30729;49.486;10.792;2023-10-09T00:54:01;12.70;;;6.97;;
44995;SDS011;30729;49.486;10.792;2023-10-09T00:56:38;22.65;;;8.18;;
44995;SDS011;30729;49.486;10.792;2023-10-09T00:59:04;15.48;;;7.75;;
44995;SDS011;30729;49.486;10.792;2023-10-09T01:01:50;13.07;;;6.75;;
44995;SDS011;30729;49.486;10.792;2023-10-09T01:04:21;13.23;;;7.40;;
44995;SDS011;30729;49.486;10.792;2023-10-09T01:06:47;15.68;;;7.20;;
44995;SDS011;30729;49.486;10.792;2023-10-09T01:09:18;13.90;;;6.90;;
44995;SDS011;30729;49.486;10.792;2023-10-09T01:11:44;13.68;;;6.35;;
44995;SDS011;30729;49.486;10.792;2023-10-09T01:14:14;16.95;;;7.13;;
44995;SDS011;30729;49.486;10.792;2023-10-09T01:16:40;17.27;;;7.38;;
44995;SDS011;30729;49.486;10.792;2023-10-09T01:19:08;15.07;;;7.00;;
44995;SDS011;30729;49.486;10.792;2023-10-09T01:21:38;17.35;;;7.20;;
44995;SDS011;30729;49.486;10.792;2023-10-09T01:24:04;21.35;;;7.57;;
44995;SDS011;30729;49.486;10.792;2023-10-09T01:26:42;15.75;;;7.45;;
44995;SDS011;30729;49.486;10.792;2023-10-09T01:29:21;13.80;;;7.07;;
44995;SDS011;30729;49.486;10.792;2023-10-09T01:34:27;12.77;;;6.20;;
44995;SDS011;30729;49.486;10.792;2023-10-09T01:37:15;10.07;;;5.13;;
44995;SDS011;30729;49.486;10.792;2023-10-09T01:39:43;10.35;;;5.25;;
44995;SDS011;30729;49.486;10.792;2023-10-09T01:42:10;9.65;;;5.10;;
44995;SDS011;30729;49.486;10.792;2023-10-09T01:44:35;11.40;;;5.13;;
44995;SDS011;30729;49.486;10.792;2023-10-09T01:47:05;10.02;;;5.45;;
44995;SDS011;30729;49.486;10.792;2023-10-09T01:49:38;10.45;;;5.38;;
44995;SDS011;30729;49.486;10.792;2023-10-09T01:52:06;12.38;;;5.60;;
44995;SDS011;30729;49.486;10.792;2023-10-09T01:54:37;12.63;;;5.82;;
44995;SDS011;30729;49.486;10.792;2023-10-09T01:57:06;10.73;;;6.07;;
44995;SDS011;30729;49.486;10.792;2023-10-09T01:59:35;11.35;;;5.57;;
44995;SDS011;30729;49.486;10.792;2023-10-09T02:02:06;14.10;;;6.53;;
44995;SDS011;30729;49.486;10.792;2023-10-09T02:04:50;12.77;;;6.80;;
44995;SDS011;30729;49.486;10.792;2023-10-09T02:07:16;14.73;;;5.88;;
44995;SDS011;30729;49.486;10.792;2023-10-09T02:09:47;11.68;;;6.30;;
44995;SDS011;30729;49.486;10.792;2023-10-09T02:12:12;11.68;;;5.38;;
44995;SDS011;30729;49.486;10.792;2023-10-09T02:14:37;11.50;;;5.87;;
44995;SDS011;30729;49.486;10.792;2023-10-09T02:17:06;11.32;;;6.10;;
44995;SDS011;30729;49.486;10.792;2023-10-09T02:19:34;11.52;;;5.97;;
44995;SDS011;30729;49.486;10.792;2023-10-09T02:22:01;12.20;;;6.20;;
44995;SDS011;30729;49.486;10.792;2023-10-09T02:24:31;13.73;;;7.30;;
44995;SDS011;30729;49.486;10.792;2023-10-09T02:27:14;15.32;;;6.57;;
44995;SDS011;30729;49.486;10.792;2023-10-09T02:30:18;10.95;;;5.70;;
44995;SDS011;30729;49.486;10.792;2023-10-09T02:32:51;13.20;;;5.72;;
44995;SDS011;30729;49.486;10.792;2023-10-09T02:35:17;11.57;;;5.75;;
44995;SDS011;30729;49.486;10.792;2023-10-09T02:37:46;13.65;;;6.65;;
44995;SDS011;30729;49.486;10.792;2023-10-09T02:40:12;15.30;;;7.18;;
44995;SDS011;30729;49.486;10.792;2023-10-09T02:42:40;12.13;;;5.93;;
44995;SDS011;30729;49.486;10.792;2023-10-09T02:45:08;12.77;;;6.53;;
44995;SDS011;30729;49.486;10.792;2023-10-09T02:47:36;17.00;;;6.75;;
44995;SDS011;30729;49.486;10.792;2023-10-09T02:50:05;13.55;;;6.13;;
44995;SDS011;30729;49.486;10.792;2023-10-09T02:52:45;10.77;;;5.30;;
44995;SDS011;30729;49.486;10.792;2023-10-09T02:55:12;14.98;;;6.15;;
44995;SDS011;30729;49.486;10.792;2023-10-09T02:57:49;15.38;;;6.28;;
44995;SDS011;30729;49.486;10.792;2023-10-09T03:00:21;11.93;;;5.95;;
44995;SDS011;30729;49.486;10.792;2023-10-09T03:02:54;12.32;;;5.75;;
44995;SDS011;30729;49.486;10.792;2023-10-09T03:05:19;12.60;;;5.50;;
44995;SDS011;30729;49.486;10.792;2023-10-09T03:07:45;11.05;;;5.78;;
44995;SDS011;30729;49.486;10.792;2023-10-09T03:10:10;16.08;;;6.20;;
44995;SDS011;30729;49.486;10.792;2023-10-09T03:12:36;12.07;;;5.93;;
44995;SDS011;30729;49.486;10.792;2023-10-09T03:15:01;12.50;;;5.82;;
44995;SDS011;30729;49.486;10.792;2023-10-09T03:17:30;13.85;;;6.63;;
44995;SDS011;30729;49.486;10.792;2023-10-09T03:19:59;11.70;;;5.78;;
44995;SDS011;30729;49.486;10.792;2023-10-09T03:22:24;12.73;;;5.60;;
44995;SDS011;30729;49.486;10.792;2023-10-09T03:24:49;11.18;;;5.93;;
44995;SDS011;30729;49.486;10.792;2023-10-09T03:27:17;14.93;;;5.60;;
44995;SDS011;30729;49.486;10.792;2023-10-09T03:29:43;13.57;;;5.95;;
44995;SDS011;30729;49.486;10.792;2023-10-09T03:32:14;12.27;;;5.40;;
44995;SDS011;30729;49.486;10.792;2023-10-09T03:34:40;11.45;;;5.72;;
44995;SDS011;30729;49.486;10.792;2023-10-09T03:37:07;10.95;;;5.40;;
44995;SDS011;30729;49.486;10.792;2023-10-09T03:39:46;13.73;;;6.57;;
44995;SDS011;30729;49.486;10.792;2023-10-09T03:42:16;12.80;;;6.05;;
44995;SDS011;30729;49.486;10.792;2023-10-09T03:44:45;12.90;;;6.25;;
44995;SDS011;30729;49.486;10.792;2023-10-09T03:47:14;16.38;;;5.95;;
44995;SDS011;30729;49.486;10.792;2023-10-09T03:49:41;12.60;;;5.45;;
44995;SDS011;30729;49.486;10.792;2023-10-09T03:52:07;11.00;;;5.68;;
44995;SDS011;30729;49.486;10.792;2023-10-09T03:54:33;12.07;;;5.50;;
44995;SDS011;30729;49.486;10.792;2023-10-09T03:57:00;10.15;;;5.22;;
44995;SDS011;30729;49.486;10.792;2023-10-09T03:59:25;13.60;;;5.57;;
44995;SDS011;30729;49.486;10.792;2023-10-09T04:01:55;10.23;;;5.80;;
44995;SDS011;30729;49.486;10.792;2023-10-09T04:04:22;13.57;;;6.13;;
44995;SDS011;30729;49.486;10.792;2023-10-09T04:06:48;15.85;;;6.25;;
44995;SDS011;30729;49.486;10.792;2023-10-09T04:09:13;10.63;;;5.70;;
44995;SDS011;30729;49.486;10.792;2023-10-09T04:11:41;9.98;;;5.30;;
44995;SDS011;30729;49.486;10.792;2023-10-09T04:14:08;15.45;;;5.50;;
44995;SDS011;30729;49.486;10.792;2023-10-09T04:16:37;13.27;;;5.90;;
44995;SDS011;30729;49.486;10.792;2023-10-09T04:19:16;11.85;;;5.85;;
44995;SDS011;30729;49.486;10.792;2023-10-09T04:21:47;11.35;;;5.43;;
44995;SDS011;30729;49.486;10.792;2023-10-09T04:24:13;10.93;;;5.78;;
44995;SDS011;30729;49.486;10.792;2023-10-09T04:26:41;14.30;;;5.90;;
44995;SDS011;30729;49.486;10.792;2023-10-09T04:29:10;10.20;;;5.43;;
44995;SDS011;30729;49.486;10.792;2023-10-09T04:31:36;11.10;;;6.47;;
44995;SDS011;30729;49.486;10.792;2023-10-09T04:34:02;11.93;;;5.25;;
44995;SDS011;30729;49.486;10.792;2023-10-09T04:36:46;11.33;;;5.40;;
44995;SDS011;30729;49.486;10.792;2023-10-09T04:39:11;13.38;;;5.20;;
44995;SDS011;30729;49.486;10.792;2023-10-09T04:41:37;12.77;;;6.20;;
44995;SDS011;30729;49.486;10.792;2023-10-09T04:44:08;13.15;;;6.15;;
44995;SDS011;30729;49.486;10.792;2023-10-09T04:49:30;20.00;;;7.82;;
44995;SDS011;30729;49.486;10.792;2023-10-09T04:51:59;16.42;;;7.82;;
44995;SDS011;30729;49.486;10.792;2023-10-09T04:54:30;16.98;;;6.60;;
44995;SDS011;30729;49.486;10.792;2023-10-09T04:57:04;14.18;;;6.10;;
44995;SDS011;30729;49.486;10.792;2023-10-09T04:59:29;14.40;;;6.63;;
44995;SDS011;30729;49.486;10.792;2023-10-09T05:01:55;16.10;;;6.63;;
44995;SDS011;30729;49.486;10.792;2023-10-09T05:04:24;17.33;;;7.53;;
44995;SDS011;30729;49.486;10.792;2023-10-09T05:06:59;16.23;;;7.03;;
44995;SDS011;30729;49.486;10.792;2023-10-09T05:09:24;14.35;;;6.32;;
44995;SDS011;30729;49.486;10.792;2023-10-09T05:11:51;18.35;;;6.80;;
44995;SDS011;30729;49.486;10.792;2023-10-09T05:14:16;14.10;;;7.03;;
44995;SDS011;30729;49.486;10.792;2023-10-09T05:16:42;14.77;;;6.90;;
44995;SDS011;30729;49.486;10.792;2023-10-09T05:19:20;14.93;;;6.97;;
44995;SDS011;30729;49.486;10.792;2023-10-09T05:21:54;16.98;;;7.00;;
44995;SDS011;30729;49.486;10.792;2023-10-09T05:24:23;16.55;;;7.60;;
44995;SDS011;30729;49.486;10.792;2023-10-09T05:26:49;14.75;;;7.53;;
44995;SDS011;30729;49.486;10.792;2023-10-09T05:29:21;19.38;;;6.65;;
44995;SDS011;30729;49.486;10.792;2023-10-09T05:31:58;14.70;;;7.20;;
44995;SDS011;30729;49.486;10.792;2023-10-09T05:37:27;19.45;;;8.02;;
44995;SDS011;30729;49.486;10.792;2023-10-09T05:45:07;15.20;;;6.72;;
44995;SDS011;30729;49.486;10.792;2023-10-09T05:50:19;18.02;;;6.55;;
44995;SDS011;30729;49.486;10.792;2023-10-09T05:52:44;16.02;;;5.57;;
44995;SDS011;30729;49.486;10.792;2023-10-09T05:55:21;17.20;;;4.80;;
44995;SDS011;30729;49.486;10.792;2023-10-09T05:57:49;10.27;;;5.05;;
44995;SDS011;30729;49.486;10.792;2023-10-09T06:00:21;17.38;;;5.30;;
44995;SDS011;30729;49.486;10.792;2023-10-09T06:03:05;14.27;;;5.50;;
44995;SDS011;30729;49.486;10.792;2023-10-09T06:08:22;16.20;;;5.22;;
44995;SDS011;30729;49.486;10.792;2023-10-09T06:11:09;21.45;;;6.13;;
44995;SDS011;30729;49.486;10.792;2023-10-09T06:13:53;15.77;;;5.53;;
44995;SDS011;30729;49.486;10.792;2023-10-09T06:16:31;13.63;;;5.03;;
44995;SDS011;30729;49.486;10.792;2023-10-09T06:19:06;15.65;;;4.82;;
44995;SDS011;30729;49.486;10.792;2023-10-09T06:21:37;14.55;;;5.68;;
44995;SDS011;30729;49.486;10.792;2023-10-09T06:24:25;12.38;;;4.55;;
44995;SDS011;30729;49.486;10.792;2023-10-09T06:26:58;16.13;;;5.00;;
44995;SDS011;30729;49.486;10.792;2023-10-09T06:29:24;13.50;;;4.30;;
44995;SDS011;30729;49.486;10.792;2023-10-09T06:32:21;12.70;;;4.45;;
44995;SDS011;30729;49.486;10.792;2023-10-09T06:35:00;16.88;;;3.80;;
44995;SDS011;30729;49.486;10.792;2023-10-09T06:40:27;14.77;;;3.85;;
44995;SDS011;30729;49.486;10.792;2023-10-09T06:43:02;15.23;;;3.92;;
44995;SDS011;30729;49.486;10.792;2023-10-09T06:45:34;14.98;;;4.20;;
44995;SDS011;30729;49.486;10.792;2023-10-09T06:48:08;12.30;;;4.18;;
44995;SDS011;30729;49.486;10.792;2023-10-09T06:50:54;14.68;;;3.53;;
44995;SDS011;30729;49.486;10.792;2023-10-09T06:53:29;12.35;;;4.43;;
44995;SDS011;30729;49.486;10.792;2023-10-09T06:56:14;12.02;;;4.15;;
44995;SDS011;30729;49.486;10.792;2023-10-09T06:59:08;19.10;;;3.47;;
44995;SDS011;30729;49.486;10.792;2023-10-09T07:01:46;21.27;;;3.28;;
44995;SDS011;30729;49.486;10.792;2023-10-09T07:04:14;13.55;;;3.80;;
44995;SDS011;30729;49.486;10.792;2023-10-09T07:06:58;11.85;;;3.53;;
44995;SDS011;30729;49.486;10.792;2023-10-09T07:09:24;15.38;;;4.30;;
44995;SDS011;30729;49.486;10.792;2023-10-09T07:11:52;15.73;;;3.70;;
44995;SDS011;30729;49.486;10.792;2023-10-09T07:14:21;20.52;;;4.15;;
44995;SDS011;30729;49.486;10.792;2023-10-09T07:17:10;11.10;;;3.55;;
44995;SDS011;30729;49.486;10.792;2023-10-09T07:19:41;11.73;;;3.55;;
44995;SDS011;30729;49.486;10.792;2023-10-09T07:22:07;8.25;;;3.00;;
44995;SDS011;30729;49.486;10.792;2023-10-09T07:24:54;15.10;;;3.13;;
44995;SDS011;30729;49.486;10.792;2023-10-09T07:27:26;14.82;;;3.13;;
44995;SDS011;30729;49.486;10.792;2023-10-09T07:30:07;11.27;;;3.05;;
44995;SDS011;30729;49.486;10.792;2023-10-09T07:33:04;12.63;;;3.95;;
44995;SDS011;30729;49.486;10.792;2023-10-09T07:35:36;11.32;;;3.00;;
44995;SDS011;30729;49.486;10.792;2023-10-09T07:38:11;14.27;;;3.55;;
44995;SDS011;30729;49.486;10.792;2023-10-09T07:40:38;16.73;;;4.70;;
44995;SDS011;30729;49.486;10.792;2023-10-09T07:43:23;15.68;;;4.22;;
44995;SDS011;30729;49.486;10.792;2023-10-09T07:45:51;14.25;;;3.75;;
44995;SDS011;30729;49.486;10.792;2023-10-09T07:48:16;14.48;;;3.08;;
44995;SDS011;30729;49.486;10.792;2023-10-09T07:50:41;14.40;;;3.65;;
44995;SDS011;30729;49.486;10.792;2023-10-09T07:53:13;13.73;;;3.22;;
44995;SDS011;30729;49.486;10.792;2023-10-09T07:55:50;13.88;;;4.05;;
44995;SDS011;30729;49.486;10.792;2023-10-09T07:58:26;9.90;;;3.03;;
44995;SDS011;30729;49.486;10.792;2023-10-09T08:00:52;14.07;;;3.30;;
44995;SDS011;30729;49.486;10.792;2023-10-09T08:03:26;11.80;;;3.63;;
44995;SDS011;30729;49.486;10.792;2023-10-09T08:05:57;15.68;;;3.53;;
44995;SDS011;30729;49.486;10.792;2023-10-09T08:08:32;11.38;;;3.33;;
44995;SDS011;30729;49.486;10.792;2023-10-09T08:11:00;9.05;;;3.13;;
44995;SDS011;30729;49.486;10.792;2023-10-09T08:13:43;12.35;;;3.80;;
44995;SDS011;30729;49.486;10.792;2023-10-09T08:16:21;11.63;;;4.13;;
44995;SDS011;30729;49.486;10.792;2023-10-09T08:18:49;11.32;;;3.67;;
44995;SDS011;30729;49.486;10.792;2023-10-09T08:21:16;10.77;;;3.03;;
44995;SDS011;30729;49.486;10.792;2023-10-09T08:23:41;12.02;;;3.40;;
44995;SDS011;30729;49.486;10.792;2023-10-09T08:26:17;10.05;;;3.50;;
44995;SDS011;30729;49.486;10.792;2023-10-09T08:28:56;11.57;;;3.47;;
44995;SDS011;30729;49.486;10.792;2023-10-09T08:31:40;11.40;;;3.42;;
44995;SDS011;30729;49.486;10.792;2023-10-09T08:34:12;10.85;;;3.60;;
44995;SDS011;30729;49.486;10.792;2023-10-09T08:36:51;9.05;;;3.00;;
44995;SDS011;30729;49.486;10.792;2023-10-09T08:39:17;12.50;;;3.03;;
44995;SDS011;30729;49.486;10.792;2023-10-09T08:41:50;11.88;;;2.90;;
44995;SDS011;30729;49.486;10.792;2023-10-09T08:44:17;12.15;;;3.45;;
44995;SDS011;30729;49.486;10.792;2023-10-09T08:46:46;14.20;;;4.57;;
44995;SDS011;30729;49.486;10.792;2023-10-09T08:49:11;16.77;;;3.40;;
44995;SDS011;30729;49.486;10.792;2023-10-09T08:51:37;11.80;;;3.63;;
44995;SDS011;30729;49.486;10.792;2023-10-09T08:54:02;13.30;;;3.10;;
44995;SDS011;30729;49.486;10.792;2023-10-09T08:56:29;14.82;;;3.90;;
44995;SDS011;30729;49.486;10.792;2023-10-09T08:58:56;13.95;;;3.30;;
44995;SDS011;30729;49.486;10.792;2023-10-09T09:01:22;15.18;;;3.85;;
44995;SDS011;30729;49.486;10.792;2023-10-09T09:03:49;13.60;;;3.10;;
44995;SDS011;30729;49.486;10.792;2023-10-09T09:06:15;13.05;;;3.88;;
44995;SDS011;30729;49.486;10.792;2023-10-09T09:08:40;13.38;;;3.45;;
44995;SDS011;30729;49.486;10.792;2023-10-09T09:11:10;14.88;;;3.72;;
44995;SDS011;30729;49.486;10.792;2023-10-09T09:13:41;10.20;;;2.85;;
44995;SDS011;30729;49.486;10.792;2023-10-09T09:16:13;17.98;;;3.22;;
44995;SDS011;30729;49.486;10.792;2023-10-09T09:18:48;12.80;;;3.33;;
44995;SDS011;30729;49.486;10.792;2023-10-09T09:21:17;9.77;;;3.28;;
44995;SDS011;30729;49.486;10.792;2023-10-09T09:23:53;12.50;;;3.50;;
44995;SDS011;30729;49.486;10.792;2023-10-09T09:26:20;12.00;;;2.90;;
44995;SDS011;30729;49.486;10.792;2023-10-09T09:28:59;10.95;;;3.35;;
44995;SDS011;30729;49.486;10.792;2023-10-09T09:31:25;16.63;;;3.45;;
44995;SDS011;30729;49.486;10.792;2023-10-09T09:33:55;14.48;;;3.40;;
44995;SDS011;30729;49.486;10.792;2023-10-09T09:36:23;12.30;;;3.55;;
44995;SDS011;30729;49.486;10.792;2023-10-09T09:38:48;8.75;;;3.05;;
44995;SDS011;30729;49.486;10.792;2023-10-09T09:41:14;8.25;;;2.47;;
44995;SDS011;30729;49.486;10.792;2023-10-09T09:43:51;13.88;;;3.85;;
44995;SDS011;30729;49.486;10.792;2023-10-09T09:46:17;13.85;;;3.20;;
44995;SDS011;30729;49.486;10.792;2023-10-09T09:48:43;13.25;;;4.00;;
44995;SDS011;30729;49.486;10.792;2023-10-09T09:51:13;17.80;;;3.67;;
44995;SDS011;30729;49.486;10.792;2023-10-09T09:53:39;12.05;;;3.75;;
44995;SDS011;30729;49.486;10.792;2023-10-09T09:56:05;17.30;;;3.90;;
44995;SDS011;30729;49.486;10.792;2023-10-09T09:58:31;12.07;;;3.78;;
44995;SDS011;30729;49.486;10.792;2023-10-09T10:01:07;9.52;;;3.33;;
44995;SDS011;30729;49.486;10.792;2023-10-09T10:03:40;16.17;;;3.40;;
44995;SDS011;30729;49.486;10.792;2023-10-09T10:06:08;17.40;;;3.10;;
44995;SDS011;30729;49.486;10.792;2023-10-09T10:08:38;28.10;;;3.60;;
44995;SDS011;30729;49.486;10.792;2023-10-09T10:11:04;11.32;;;3.08;;
44995;SDS011;30729;49.486;10.792;2023-10-09T10:16:07;14.05;;;3.15;;
44995;SDS011;30729;49.486;10.792;2023-10-09T10:18:54;13.35;;;3.08;;
44995;SDS011;30729;49.486;10.792;2023-10-09T10:21:24;12.50;;;3.05;;
44995;SDS011;30729;49.486;10.792;2023-10-09T10:23:59;13.40;;;3.30;;
44995;SDS011;30729;49.486;10.792;2023-10-09T10:26:31;15.73;;;3.33;;
44995;SDS011;30729;49.486;10.792;2023-10-09T10:29:17;11.70;;;3.17;;
44995;SDS011;30729;49.486;10.792;2023-10-09T10:32:01;15.43;;;3.05;;
44995;SDS011;30729;49.486;10.792;2023-10-09T10:34:52;17.08;;;3.70;;
44995;SDS011;30729;49.486;10.792;2023-10-09T10:40:03;17.13;;;5.25;;
44995;SDS011;30729;49.486;10.792;2023-10-09T10:42:46;10.40;;;3.60;;
44995;SDS011;30729;49.486;10.792;2023-10-09T10:45:22;11.23;;;3.35;;
44995;SDS011;30729;49.486;10.792;2023-10-09T10:47:59;15.80;;;4.28;;
44995;SDS011;30729;49.486;10.792;2023-10-09T10:50:31;9.43;;;3.20;;
44995;SDS011;30729;49.486;10.792;2023-10-09T10:53:09;12.40;;;4.20;;
44995;SDS011;30729;49.486;10.792;2023-10-09T10:55:38;11.10;;;3.70;;
44995;SDS011;30729;49.486;10.792;2023-10-09T10:58:17;13.05;;;3.78;;
44995;SDS011;30729;49.486;10.792;2023-10-09T11:00:52;14.85;;;3.85;;
44995;SDS011;30729;49.486;10.792;2023-10-09T11:03:23;11.30;;;3.78;;
44995;SDS011;30729;49.486;10.792;2023-10-09T11:06:00;15.95;;;3.75;;
44995;SDS011;30729;49.486;10.792;2023-10-09T11:08:38;14.52;;;4.22;;
44995;SDS011;30729;49.486;10.792;2023-10-09T11:11:12;13.23;;;3.80;;
44995;SDS011;30729;49.486;10.792;2023-10-09T11:13:41;13.10;;;3.63;;
44995;SDS011;30729;49.486;10.792;2023-10-09T11:16:22;13.90;;;3.95;;
44995;SDS011;30729;49.486;10.792;2023-10-09T11:19:05;12.32;;;3.67;;
44995;SDS011;30729;49.486;10.792;2023-10-09T11:21:38;11.40;;;2.63;;
44995;SDS011;30729;49.486;10.792;2023-10-09T11:24:06;16.70;;;3.40;;
44995;SDS011;30729;49.486;10.792;2023-10-09T11:26:50;17.45;;;4.20;;
44995;SDS011;30729;49.486;10.792;2023-10-09T11:29:22;19.27;;;3.90;;
44995;SDS011;30729;49.486;10.792;2023-10-09T11:31:57;14.60;;;3.17;;
44995;SDS011;30729;49.486;10.792;2023-10-09T11:34:22;15.07;;;4.07;;
44995;SDS011;30729;49.486;10.792;2023-10-09T11:37:00;16.58;;;3.47;;
44995;SDS011;30729;49.486;10.792;2023-10-09T11:39:26;10.98;;;3.25;;
44995;SDS011;30729;49.486;10.792;2023-10-09T11:42:03;15.52;;;3.83;;
44995;SDS011;30729;49.486;10.792;2023-10-09T11:44:38;12.27;;;3.58;;
44995;SDS011;30729;49.486;10.792;2023-10-09T11:47:04;13.00;;;3.33;;
44995;SDS011;30729;49.486;10.792;2023-10-09T11:49:48;11.65;;;3.15;;
44995;SDS011;30729;49.486;10.792;2023-10-09T11:52:21;13.13;;;3.50;;
44995;SDS011;30729;49.486;10.792;2023-10-09T11:55:21;18.55;;;5.53;;
44995;SDS011;30729;49.486;10.792;2023-10-09T11:57:46;10.27;;;3.80;;
44995;SDS011;30729;49.486;10.792;2023-10-09T12:00:15;15.90;;;3.08;;
44995;SDS011;30729;49.486;10.792;2023-10-09T12:02:56;16.30;;;2.90;;
44995;SDS011;30729;49.486;10.792;2023-10-09T12:05:21;12.90;;;3.83;;
44995;SDS011;30729;49.486;10.792;2023-10-09T12:07:48;17.70;;;4.32;;
44995;SDS011;30729;49.486;10.792;2023-10-09T12:10:21;12.10;;;3.88;;
44995;SDS011;30729;49.486;10.792;2023-10-09T12:12:54;16.92;;;3.80;;
44995;SDS011;30729;49.486;10.792;2023-10-09T12:15:22;10.82;;;3.47;;
44995;SDS011;30729;49.486;10.792;2023-10-09T12:17:48;11.85;;;3.75;;
44995;SDS011;30729;49.486;10.792;2023-10-09T12:20:14;17.45;;;3.90;;
44995;SDS011;30729;49.486;10.792;2023-10-09T12:22:55;15.10;;;3.33;;
44995;SDS011;30729;49.486;10.792;2023-10-09T12:25:22;12.93;;;3.33;;
44995;SDS011;30729;49.486;10.792;2023-10-09T12:27:48;15.70;;;3.28;;
44995;SDS011;30729;49.486;10.792;2023-10-09T12:30:13;10.93;;;3.58;;
44995;SDS011;30729;49.486;10.792;2023-10-09T12:32:38;11.52;;;2.97;;
44995;SDS011;30729;49.486;10.792;2023-10-09T12:35:04;13.57;;;3.10;;
44995;SDS011;30729;49.486;10.792;2023-10-09T12:37:42;12.48;;;3.22;;
44995;SDS011;30729;49.486;10.792;2023-10-09T12:40:08;10.93;;;3.20;;
44995;SDS011;30729;49.486;10.792;2023-10-09T12:42:35;13.10;;;3.53;;
44995;SDS011;30729;49.486;10.792;2023-10-09T12:45:00;13.65;;;4.15;;
44995;SDS011;30729;49.486;10.792;2023-10-09T12:47:32;13.98;;;4.50;;
44995;SDS011;30729;49.486;10.792;2023-10-09T12:49:58;18.58;;;4.57;;
44995;SDS011;30729;49.486;10.792;2023-10-09T12:52:23;20.48;;;4.85;;
44995;SDS011;30729;49.486;10.792;2023-10-09T12:54:54;9.80;;;3.38;;
44995;SDS011;30729;49.486;10.792;2023-10-09T12:57:19;10.20;;;3.13;;
44995;SDS011;30729;49.486;10.792;2023-10-09T12:59:44;10.27;;;2.95;;
44995;SDS011;30729;49.486;10.792;2023-10-09T13:02:13;12.82;;;3.80;;
44995;SDS011;30729;49.486;10.792;2023-10-09T13:04:53;14.05;;;4.20;;
44995;SDS011;30729;49.486;10.792;2023-10-09T13:07:18;14.05;;;3.35;;
44995;SDS011;30729;49.486;10.792;2023-10-09T13:09:47;9.32;;;3.55;;
44995;SDS011;30729;49.486;10.792;2023-10-09T13:12:32;12.70;;;3.25;;
44995;SDS011;30729;49.486;10.792;2023-10-09T13:14:57;19.20;;;4.00;;
44995;SDS011;30729;49.486;10.792;2023-10-09T13:17:22;11.00;;;3.42;;
44995;SDS011;30729;49.486;10.792;2023-10-09T13:19:51;10.88;;;3.63;;
44995;SDS011;30729;49.486;10.792;2023-10-09T13:22:17;11.82;;;3.20;;
44995;SDS011;30729;49.486;10.792;2023-10-09T13:24:42;14.98;;;3.50;;
44995;SDS011;30729;49.486;10.792;2023-10-09T13:27:08;10.98;;;3.97;;
44995;SDS011;30729;49.486;10.792;2023-10-09T13:29:34;13.23;;;3.00;;
44995;SDS011;30729;49.486;10.792;2023-10-09T13:31:59;13.82;;;4.53;;
44995;SDS011;30729;49.486;10.792;2023-10-09T13:34:27;10.85;;;3.75;;
44995;SDS011;30729;49.486;10.792;2023-10-09T13:36:53;15.20;;;4.25;;
44995;SDS011;30729;49.486;10.792;2023-10-09T13:39:19;9.52;;;3.17;;
44995;SDS011;30729;49.486;10.792;2023-10-09T13:41:47;13.60;;;3.42;;
44995;SDS011;30729;49.486;10.792;2023-10-09T13:44:12;15.23;;;3.67;;
44995;SDS011;30729;49.486;10.792;2023-10-09T13:46:38;13.40;;;3.85;;
44995;SDS011;30729;49.486;10.792;2023-10-09T13:49:09;11.20;;;3.45;;
44995;SDS011;30729;49.486;10.792;2023-10-09T13:51:40;11.05;;;3.28;;
44995;SDS011;30729;49.486;10.792;2023-10-09T13:54:12;13.00;;;3.40;;
44995;SDS011;30729;49.486;10.792;2023-10-09T13:56:45;9.52;;;3.63;;
44995;SDS011;30729;49.486;10.792;2023-10-09T13:59:10;10.32;;;4.30;;
44995;SDS011;30729;49.486;10.792;2023-10-09T14:01:36;11.02;;;3.53;;
44995;SDS011;30729;49.486;10.792;2023-10-09T14:04:03;13.43;;;3.92;;
44995;SDS011;30729;49.486;10.792;2023-10-09T14:06:31;14.65;;;4.53;;
44995;SDS011;30729;49.486;10.792;2023-10-09T14:08:57;16.48;;;5.70;;
44995;SDS011;30729;49.486;10.792;2023-10-09T14:11:22;15.07;;;4.38;;
44995;SDS011;30729;49.486;10.792;2023-10-09T14:13:47;11.88;;;3.90;;
44995;SDS011;30729;49.486;10.792;2023-10-09T14:16:13;10.45;;;3.15;;
44995;SDS011;30729;49.486;10.792;2023-10-09T14:18:49;14.93;;;4.15;;
44995;SDS011;30729;49.486;10.792;2023-10-09T14:21:18;11.63;;;3.90;;
44995;SDS011;30729;49.486;10.792;2023-10-09T14:23:43;8.10;;;2.90;;
44995;SDS011;30729;49.486;10.792;2023-10-09T14:26:11;9.50;;;3.42;;
44995;SDS011;30729;49.486;10.792;2023-10-09T14:28:37;16.92;;;3.70;;
44995;SDS011;30729;49.486;10.792;2023-10-09T14:31:03;15.30;;;4.78;;
44995;SDS011;30729;49.486;10.792;2023-10-09T14:33:36;13.48;;;3.20;;
44995;SDS011;30729;49.486;10.792;2023-10-09T14:36:01;15.68;;;3.78;;
44995;SDS011;30729;49.486;10.792;2023-10-09T14:38:27;12.90;;;3.67;;
44995;SDS011;30729;49.486;10.792;2023-10-09T14:40:52;14.90;;;3.65;;
44995;SDS011;30729;49.486;10.792;2023-10-09T14:43:22;9.55;;;2.88;;
44995;SDS011;30729;49.486;10.792;2023-10-09T14:45:53;13.18;;;3.80;;
44995;SDS011;30729;49.486;10.792;2023-10-09T14:48:18;10.55;;;3.67;;
44995;SDS011;30729;49.486;10.792;2023-10-09T14:50:47;12.45;;;3.65;;
44995;SDS011;30729;49.486;10.792;2023-10-09T14:53:13;13.98;;;3.83;;
44995;SDS011;30729;49.486;10.792;2023-10-09T14:55:40;10.85;;;3.28;;
44995;SDS011;30729;49.486;10.792;2023-10-09T14:58:06;12.45;;;4.15;;
44995;SDS011;30729;49.486;10.792;2023-10-09T15:00:31;12.82;;;4.07;;
44995;SDS011;30729;49.486;10.792;2023-10-09T15:02:59;12.30;;;3.78;;
44995;SDS011;30729;49.486;10.792;2023-10-09T15:05:24;12.48;;;3.50;;
44995;SDS011;30729;49.486;10.792;2023-10-09T15:07:49;20.05;;;4.18;;
44995;SDS011;30729;49.486;10.792;2023-10-09T15:10:15;16.13;;;3.58;;
44995;SDS011;30729;49.486;10.792;2023-10-09T15:12:41;13.55;;;4.05;;